createdAt,value
2023-01-22T00:00:17.066Z,1.14
2023-01-22T00:03:20.036Z,1.13
2023-01-22T00:06:24.024Z,1.07
2023-01-22T00:09:26.782Z,1.06
2023-01-22T00:12:29.827Z,1.01
2023-01-22T00:15:32.246Z,1.04
2023-01-22T00:18:35.329Z,1.11
2023-01-22T00:21:38.229Z,1.14
2023-01-22T00:24:41.072Z,1.14
2023-01-22T00:27:43.855Z,1.07
2023-01-22T00:30:46.577Z,1.05
2023-01-22T00:33:49.244Z,1.03
2023-01-22T00:36:52.012Z,0.96
2023-01-22T00:39:54.683Z,0.91
2023-01-22T00:42:57.499Z,0.91
2023-01-22T00:46:00.437Z,0.98
2023-01-22T00:49:03.897Z,0.93
2023-01-22T00:52:06.524Z,0.98
2023-01-22T00:55:09.473Z,0.95
2023-01-22T00:58:12.137Z,1.01
2023-01-22T01:01:15.944Z,1.01
2023-01-22T01:04:18.731Z,1.03
2023-01-22T01:07:21.678Z,1.01
2023-01-22T01:10:24.199Z,1.07
2023-01-22T01:13:28.111Z,1.06
2023-01-22T01:16:32.019Z,1.03
2023-01-22T01:19:36.099Z,1.02
2023-01-22T01:22:38.845Z,0.99
2023-01-22T01:25:42.547Z,1.02
2023-01-22T01:28:46.554Z,1.14
2023-01-22T01:31:53.515Z,1.12
2023-01-22T01:34:56.466Z,1.18
2023-01-22T01:37:59.216Z,1.13
2023-01-22T01:41:02.084Z,1.15
2023-01-22T01:44:21.436Z,1.09
2023-01-22T01:47:34.474Z,1.03
2023-01-22T01:50:40.678Z,1.07
2023-01-22T01:53:45.903Z,1.04
2023-01-22T01:56:54.588Z,1.10
2023-01-22T01:59:58.796Z,1.13
2023-01-22T02:03:01.805Z,1.15
2023-01-22T02:06:04.665Z,1.16
2023-01-22T02:09:07.780Z,1.14
2023-01-22T02:12:10.395Z,1.16
2023-01-22T02:15:14.392Z,1.14
2023-01-22T02:18:17.256Z,1.19
2023-01-22T02:21:45.054Z,1.16
2023-01-22T02:24:48.367Z,1.14
2023-01-22T02:27:51.194Z,1.08
2023-01-22T02:30:57.059Z,1.11
2023-01-22T02:34:02.429Z,1.05
2023-01-22T02:37:06.679Z,1.12
2023-01-22T02:40:10.340Z,1.13
2023-01-22T02:43:12.835Z,1.22
2023-01-22T02:46:15.694Z,1.26
2023-01-22T02:49:18.350Z,1.28
2023-01-22T02:52:21.918Z,1.31
2023-01-22T02:55:24.633Z,1.31
2023-01-22T02:58:27.909Z,1.35
2023-01-22T03:01:30.815Z,1.36
2023-01-22T03:04:34.224Z,1.28
2023-01-22T03:07:43.133Z,1.28
2023-01-22T03:10:46.293Z,1.26
2023-01-22T03:14:08.440Z,1.24
2023-01-22T03:17:29.721Z,1.20
2023-01-22T03:20:56.269Z,1.21
2023-01-22T03:23:59.030Z,1.21
2023-01-22T03:27:02.169Z,1.26
2023-01-22T03:30:07.931Z,1.28
2023-01-22T03:33:11.131Z,1.26
2023-01-22T03:36:15.557Z,1.28
2023-01-22T03:39:27.084Z,1.32
2023-01-22T03:42:30.411Z,1.26
2023-01-22T03:45:34.105Z,1.35
2023-01-22T03:48:37.552Z,1.34
2023-01-22T03:51:41.099Z,1.30
2023-01-22T03:54:44.712Z,1.30
2023-01-22T03:57:48.113Z,1.25
2023-01-22T04:00:50.967Z,1.28
2023-01-22T04:03:54.101Z,1.26
2023-01-22T04:06:59.712Z,1.19
2023-01-22T04:10:02.424Z,1.22
2023-01-22T04:13:06.686Z,1.19
2023-01-22T04:16:12.018Z,1.17
2023-01-22T04:19:33.355Z,1.14
2023-01-22T04:22:38.577Z,1.13
2023-01-22T04:25:45.644Z,1.13
2023-01-22T04:28:48.639Z,1.15
2023-01-22T04:31:51.582Z,1.22
2023-01-22T04:34:54.421Z,1.22
2023-01-22T04:38:13.333Z,1.19
2023-01-22T04:41:17.612Z,1.17
2023-01-22T04:44:20.661Z,1.20
2023-01-22T04:47:23.136Z,1.24
2023-01-22T04:50:29.335Z,1.23
2023-01-22T04:53:32.883Z,1.25
2023-01-22T04:56:36.641Z,1.25
2023-01-22T04:59:39.318Z,1.14
2023-01-22T05:02:42.439Z,1.19
2023-01-22T05:05:45.252Z,1.12
2023-01-22T05:08:48.759Z,1.17
2023-01-22T05:11:51.903Z,1.14
2023-01-22T05:14:55.089Z,1.14
2023-01-22T05:17:58.496Z,1.13
2023-01-22T05:21:01.926Z,1.15
2023-01-22T05:24:08.481Z,1.16
2023-01-22T05:27:13.214Z,1.22
2023-01-22T05:30:29.864Z,1.15
2023-01-22T05:34:05.481Z,1.19
2023-01-22T05:37:08.245Z,1.14
2023-01-22T05:40:12.322Z,1.13
2023-01-22T05:43:15.216Z,1.12
2023-01-22T05:46:22.474Z,1.16
2023-01-22T05:50:00.984Z,1.16
2023-01-22T05:53:04.088Z,1.15
2023-01-22T05:56:07.325Z,1.18
2023-01-22T05:59:14.952Z,1.18
2023-01-22T06:02:22.816Z,1.20
2023-01-22T06:05:28.181Z,1.16
2023-01-22T06:08:38.482Z,1.16
2023-01-22T06:11:41.827Z,1.15
2023-01-22T06:14:44.565Z,1.18
2023-01-22T06:17:48.797Z,1.14
2023-01-22T06:20:52.170Z,1.13
2023-01-22T06:23:55.829Z,1.18
2023-01-22T06:26:58.398Z,1.17
2023-01-22T06:30:11.172Z,1.17
2023-01-22T06:33:14.139Z,1.21
2023-01-22T06:36:16.981Z,1.25
2023-01-22T06:39:19.894Z,1.29
2023-01-22T06:42:37.168Z,1.33
2023-01-22T06:45:40.023Z,1.38
2023-01-22T06:48:48.086Z,1.43
2023-01-22T06:51:52.152Z,1.49
2023-01-22T06:54:55.230Z,1.52
2023-01-22T06:58:00.678Z,1.53
2023-01-22T07:01:06.342Z,1.63
2023-01-22T07:04:09.272Z,1.70
2023-01-22T07:07:12.616Z,1.83
2023-01-22T07:10:17.275Z,1.83
2023-01-22T07:13:20.641Z,1.89
2023-01-22T07:16:23.561Z,1.85
2023-01-22T07:19:26.416Z,1.86
2023-01-22T07:22:30.732Z,1.89
2023-01-22T07:25:33.795Z,1.87
2023-01-22T07:28:36.278Z,1.92
2023-01-22T07:31:39.428Z,1.96
2023-01-22T07:34:42.380Z,1.98
2023-01-22T07:37:52.243Z,1.99
2023-01-22T07:41:00.002Z,2.00
2023-01-22T07:44:04.016Z,2.00
2023-01-22T07:47:07.016Z,1.91
2023-01-22T07:50:11.792Z,1.89
2023-01-22T07:53:14.297Z,1.96
2023-01-22T07:56:19.400Z,2.05
2023-01-22T07:59:22.275Z,2.19
2023-01-22T08:02:26.160Z,2.31
2023-01-22T08:05:29.016Z,2.39
2023-01-22T08:08:31.865Z,2.51
2023-01-22T08:11:34.547Z,2.61
2023-01-22T08:14:37.238Z,2.71
2023-01-22T08:17:40.114Z,2.76
2023-01-22T08:20:43.044Z,2.88
2023-01-22T08:23:48.911Z,2.97
2023-01-22T08:26:52.348Z,3.02
2023-01-22T08:29:55.355Z,2.99
2023-01-22T08:32:58.411Z,3.07
2023-01-22T08:36:00.817Z,3.17
2023-01-22T08:39:03.973Z,3.35
2023-01-22T08:42:06.405Z,3.58
2023-01-22T08:45:09.714Z,4.10
2023-01-22T08:48:16.400Z,4.60
2023-01-22T08:51:19.481Z,6.26
2023-01-22T08:54:22.026Z,8.80
2023-01-22T08:57:25.029Z,10.75
2023-01-22T09:00:27.617Z,8.66
2023-01-22T09:03:30.704Z,7.72
2023-01-22T09:06:34.222Z,10.81
2023-01-22T09:09:37.038Z,13.34
2023-01-22T09:12:40.552Z,11.32
2023-01-22T09:15:43.403Z,10.01
2023-01-22T09:18:46.292Z,9.30
2023-01-22T09:21:49.491Z,8.35
2023-01-22T09:24:51.973Z,7.56
2023-01-22T09:28:01.164Z,7.60
2023-01-22T09:31:04.462Z,7.29
2023-01-22T09:34:07.292Z,6.63
2023-01-22T09:37:11.642Z,6.62
2023-01-22T09:40:46.780Z,7.21
2023-01-22T09:44:00.363Z,10.83
2023-01-22T09:47:40.476Z,12.72
2023-01-22T09:50:43.946Z,14.09
2023-01-22T09:53:54.588Z,14.48
2023-01-22T09:57:00.388Z,11.90
2023-01-22T10:00:04.361Z,13.28
2023-01-22T10:03:24.908Z,14.99
2023-01-22T10:06:30.094Z,15.81
2023-01-22T10:09:34.596Z,15.12
2023-01-22T10:12:37.285Z,15.06
2023-01-22T10:15:40.090Z,12.57
2023-01-22T10:18:52.199Z,11.02
2023-01-22T10:22:07.070Z,12.80
2023-01-22T10:25:14.818Z,14.41
2023-01-22T10:28:24.771Z,14.13
2023-01-22T10:31:36.539Z,15.00
2023-01-22T10:34:39.138Z,15.46
2023-01-22T10:37:45.789Z,16.04
2023-01-22T10:40:54.611Z,16.15
2023-01-22T10:44:08.652Z,16.21
2023-01-22T10:47:20.571Z,16.06
2023-01-22T10:50:23.604Z,16.16
2023-01-22T10:53:34.370Z,15.55
2023-01-22T10:56:40.859Z,15.06
2023-01-22T10:59:58.249Z,15.16
2023-01-22T11:03:02.124Z,14.83
2023-01-22T11:06:32.869Z,14.59
2023-01-22T11:09:45.019Z,14.76
2023-01-22T11:12:52.405Z,14.80
2023-01-22T11:16:16.593Z,14.14
2023-01-22T11:19:36.571Z,13.69
2023-01-22T11:22:43.653Z,14.17
2023-01-22T11:25:57.300Z,14.27
2023-01-22T11:29:00.519Z,14.07
2023-01-22T11:32:17.893Z,13.62
2023-01-22T11:35:29.908Z,13.15
2023-01-22T11:38:44.178Z,13.07
2023-01-22T11:41:59.022Z,13.26
2023-01-22T11:45:16.765Z,13.35
2023-01-22T11:48:28.672Z,13.14
2023-01-22T11:51:54.684Z,12.46
2023-01-22T11:55:09.017Z,12.84
2023-01-22T11:58:11.669Z,12.66
2023-01-22T12:01:41.908Z,12.50
2023-01-22T12:05:07.281Z,12.27
2023-01-22T12:08:31.789Z,12.42
2023-01-22T12:12:07.267Z,12.37
2023-01-22T12:15:36.915Z,12.35
2023-01-22T12:19:01.184Z,12.08
2023-01-22T12:22:27.870Z,12.25
2023-01-22T12:25:33.322Z,12.34
2023-01-22T12:28:52.240Z,11.54
2023-01-22T12:32:09.226Z,11.61
2023-01-22T12:35:18.864Z,11.51
2023-01-22T12:38:36.413Z,11.72
2023-01-22T12:41:58.102Z,12.52
2023-01-22T12:45:22.623Z,12.11
2023-01-22T12:48:37.593Z,11.85
2023-01-22T12:51:46.114Z,11.94
2023-01-22T12:54:55.010Z,12.25
2023-01-22T12:57:58.693Z,12.51
2023-01-22T13:01:23.628Z,13.00
2023-01-22T13:04:33.654Z,12.40
2023-01-22T13:07:38.142Z,12.65
2023-01-22T13:10:55.512Z,13.18
2023-01-22T13:14:16.885Z,13.60
2023-01-22T13:17:23.522Z,12.65
2023-01-22T13:20:27.464Z,12.51
2023-01-22T13:23:36.313Z,12.60
2023-01-22T13:26:39.662Z,12.75
2023-01-22T13:29:42.762Z,12.74
2023-01-22T13:32:45.479Z,12.78
2023-01-22T13:35:48.162Z,12.21
2023-01-22T13:38:57.661Z,12.22
2023-01-22T13:42:02.938Z,12.36
2023-01-22T13:45:06.545Z,12.14
2023-01-22T13:48:15.986Z,11.54
2023-01-22T13:51:20.997Z,11.57
2023-01-22T13:54:40.048Z,11.49
2023-01-22T13:57:48.023Z,11.26
2023-01-22T14:00:52.690Z,11.48
2023-01-22T14:04:24.424Z,10.93
2023-01-22T14:07:35.647Z,11.38
2023-01-22T14:10:42.295Z,10.98
2023-01-22T14:13:46.902Z,10.94
2023-01-22T14:16:50.237Z,10.92
2023-01-22T14:19:53.322Z,10.81
2023-01-22T14:22:56.490Z,10.44
2023-01-22T14:26:07.005Z,10.60
2023-01-22T14:29:10.171Z,10.24
2023-01-22T14:32:12.618Z,10.28
2023-01-22T14:35:18.217Z,10.02
2023-01-22T14:38:21.661Z,9.74
2023-01-22T14:41:25.172Z,9.73
2023-01-22T14:44:28.065Z,9.30
2023-01-22T14:47:31.000Z,9.08
2023-01-22T14:50:33.944Z,8.86
2023-01-22T14:53:36.870Z,8.58
2023-01-22T14:56:39.658Z,8.28
2023-01-22T14:59:42.468Z,8.06
2023-01-22T15:02:45.211Z,7.61
2023-01-22T15:05:52.248Z,7.18
2023-01-22T15:08:55.114Z,6.95
2023-01-22T15:11:58.473Z,6.70
2023-01-22T15:15:01.900Z,6.73
2023-01-22T15:18:05.570Z,6.49
2023-01-22T15:21:08.303Z,5.99
2023-01-22T15:24:11.440Z,5.63
2023-01-22T15:27:18.553Z,5.61
2023-01-22T15:30:21.767Z,5.50
2023-01-22T15:33:25.025Z,5.47
2023-01-22T15:36:32.214Z,5.54
2023-01-22T15:39:34.767Z,5.48
2023-01-22T15:42:37.508Z,5.30
2023-01-22T15:45:39.926Z,5.21
2023-01-22T15:48:42.905Z,5.20
2023-01-22T15:51:45.704Z,4.98
2023-01-22T15:54:48.950Z,5.02
2023-01-22T15:57:51.800Z,4.91
2023-01-22T16:00:57.172Z,4.85
2023-01-22T16:04:03.946Z,4.77
2023-01-22T16:07:06.702Z,4.41
2023-01-22T16:10:10.349Z,4.47
2023-01-22T16:13:13.125Z,4.41
2023-01-22T16:16:23.243Z,4.37
2023-01-22T16:19:26.366Z,3.92
2023-01-22T16:22:29.037Z,3.87
2023-01-22T16:25:32.363Z,3.88
2023-01-22T16:28:36.658Z,3.91
2023-01-22T16:31:39.740Z,3.91
2023-01-22T16:34:42.636Z,3.73
2023-01-22T16:37:45.512Z,3.66
2023-01-22T16:40:48.517Z,3.69
2023-01-22T16:44:09.234Z,3.72
2023-01-22T16:47:12.138Z,3.62
2023-01-22T16:50:17.945Z,3.50
2023-01-22T16:53:20.969Z,3.26
2023-01-22T16:56:24.026Z,3.20
2023-01-22T16:59:27.804Z,3.13
2023-01-22T17:02:31.626Z,3.24
2023-01-22T17:05:34.466Z,3.17
2023-01-22T17:08:37.861Z,3.25
2023-01-22T17:11:42.500Z,3.17
2023-01-22T17:14:46.576Z,3.04
2023-01-22T17:17:49.315Z,2.99
2023-01-22T17:21:01.948Z,2.72
2023-01-22T17:24:05.324Z,2.88
2023-01-22T17:27:08.332Z,2.84
2023-01-22T17:30:12.124Z,2.82
2023-01-22T17:33:17.100Z,2.61
2023-01-22T17:36:20.212Z,2.59
2023-01-22T17:39:24.469Z,2.57
2023-01-22T17:42:27.281Z,2.53
2023-01-22T17:45:30.189Z,2.54
2023-01-22T17:48:33.016Z,2.59
2023-01-22T17:51:36.541Z,2.46
2023-01-22T17:54:40.156Z,2.37
2023-01-22T17:57:43.253Z,2.30
2023-01-22T18:00:48.805Z,2.19
2023-01-22T18:03:52.117Z,2.06
2023-01-22T18:06:54.969Z,2.12
2023-01-22T18:09:58.621Z,1.97
2023-01-22T18:13:01.592Z,1.85
2023-01-22T18:16:10.398Z,1.93
2023-01-22T18:19:13.745Z,1.97
2023-01-22T18:22:17.268Z,1.83
2023-01-22T18:25:20.430Z,1.93
2023-01-22T18:28:26.004Z,1.92
2023-01-22T18:31:29.593Z,1.78
2023-01-22T18:34:32.614Z,1.80
2023-01-22T18:37:37.485Z,1.67
2023-01-22T18:40:41.444Z,1.72
2023-01-22T18:43:47.685Z,1.59
2023-01-22T18:46:52.592Z,1.65
2023-01-22T18:49:55.309Z,1.56
2023-01-22T18:52:58.349Z,1.46
2023-01-22T18:56:02.579Z,1.45
2023-01-22T18:59:06.074Z,1.48
2023-01-22T19:02:16.111Z,1.51
2023-01-22T19:05:19.494Z,1.48
2023-01-22T19:08:22.951Z,1.49
2023-01-22T19:11:25.914Z,1.47
2023-01-22T19:14:28.804Z,1.42
2023-01-22T19:17:31.715Z,1.42
2023-01-22T19:20:36.849Z,1.39
2023-01-22T19:23:41.237Z,1.37
2023-01-22T19:26:46.659Z,1.37
2023-01-22T19:29:50.052Z,1.28
2023-01-22T19:32:54.696Z,1.22
2023-01-22T19:35:58.562Z,1.18
2023-01-22T19:39:04.270Z,1.21
2023-01-22T19:42:07.797Z,1.12
2023-01-22T19:45:10.531Z,1.09
2023-01-22T19:48:13.272Z,1.11
2023-01-22T19:51:17.548Z,1.09
2023-01-22T19:54:20.800Z,1.08
2023-01-22T19:57:24.078Z,1.11
2023-01-22T20:00:27.208Z,1.06
2023-01-22T20:03:30.266Z,1.05
2023-01-22T20:06:33.149Z,0.97
2023-01-22T20:09:37.280Z,0.89
2023-01-22T20:12:41.025Z,0.89
2023-01-22T20:15:44.056Z,1.00
2023-01-22T20:18:48.237Z,0.93
2023-01-22T20:21:51.049Z,0.91
2023-01-22T20:24:54.374Z,0.93
2023-01-22T20:27:59.668Z,0.91
2023-01-22T20:31:07.923Z,0.99
2023-01-22T20:34:11.021Z,0.90
2023-01-22T20:37:13.757Z,0.86
2023-01-22T20:40:16.802Z,0.82
2023-01-22T20:43:20.903Z,0.85
2023-01-22T20:46:25.790Z,0.90
2023-01-22T20:49:29.437Z,0.98
2023-01-22T20:52:32.477Z,0.89
2023-01-22T20:55:35.944Z,0.93
2023-01-22T20:58:38.446Z,0.90
2023-01-22T21:01:41.964Z,0.87
2023-01-22T21:04:45.026Z,0.79
2023-01-22T21:07:47.977Z,0.87
2023-01-22T21:11:02.407Z,0.84
2023-01-22T21:14:05.967Z,0.78
2023-01-22T21:17:08.925Z,0.75
2023-01-22T21:20:12.378Z,0.79
2023-01-22T21:23:16.731Z,0.73
2023-01-22T21:26:24.992Z,0.77
2023-01-22T21:29:27.949Z,0.81
2023-01-22T21:32:30.894Z,0.84
2023-01-22T21:35:33.498Z,0.83
2023-01-22T21:38:37.117Z,0.76
2023-01-22T21:41:40.367Z,0.75
2023-01-22T21:45:02.734Z,0.71
2023-01-22T21:48:05.461Z,0.79
2023-01-22T21:51:08.547Z,0.74
2023-01-22T21:54:12.575Z,0.78
2023-01-22T21:57:16.664Z,0.81
2023-01-22T22:00:22.042Z,0.78
2023-01-22T22:03:24.892Z,0.79
2023-01-22T22:06:29.805Z,0.77
2023-01-22T22:09:32.534Z,0.72
2023-01-22T22:12:35.304Z,0.73
2023-01-22T22:15:39.227Z,0.63
2023-01-22T22:18:41.765Z,0.61
2023-01-22T22:21:44.983Z,0.65
2023-01-22T22:24:47.489Z,0.68
2023-01-22T22:27:50.397Z,0.70
2023-01-22T22:30:52.968Z,0.72
2023-01-22T22:33:56.975Z,0.75
2023-01-22T22:36:59.622Z,0.76
2023-01-22T22:40:02.359Z,0.73
2023-01-22T22:43:05.130Z,0.69
2023-01-22T22:46:13.651Z,0.66
2023-01-22T22:49:16.296Z,0.64
2023-01-22T22:52:19.173Z,0.76
2023-01-22T22:55:21.554Z,0.74
2023-01-22T22:58:24.449Z,0.71
2023-01-22T23:01:28.181Z,0.74
2023-01-22T23:04:31.197Z,0.73
2023-01-22T23:07:33.877Z,0.80
2023-01-22T23:10:38.453Z,0.76
2023-01-22T23:13:44.851Z,0.92
2023-01-22T23:16:48.008Z,0.79
2023-01-22T23:19:50.913Z,0.82
2023-01-22T23:22:55.922Z,0.86
2023-01-22T23:25:58.631Z,0.92
2023-01-22T23:29:06.828Z,0.93
2023-01-22T23:32:09.525Z,0.90
2023-01-22T23:35:12.499Z,0.93
2023-01-22T23:38:15.110Z,0.87
2023-01-22T23:41:19.821Z,0.91
2023-01-22T23:44:22.691Z,0.89
2023-01-22T23:47:27.339Z,0.89
2023-01-22T23:50:30.208Z,0.93
2023-01-22T23:53:40.144Z,0.92
2023-01-22T23:56:42.724Z,0.98
2023-01-22T23:59:48.889Z,0.94
